sensor_id;sensor_type;location;lat;lon;timestamp;P1;durP1;ratioP1;P2;durP2;ratioP2
37971;SDS011;23794;48.234;8.344;2023-07-13T00:00:09;4.07;;;0.90;;
37971;SDS011;23794;48.234;8.344;2023-07-13T00:02:40;4.38;;;1.15;;
37971;SDS011;23794;48.234;8.344;2023-07-13T00:05:07;2.55;;;0.90;;
37971;SDS011;23794;48.234;8.344;2023-07-13T00:07:34;8.07;;;1.20;;
37971;SDS011;23794;48.234;8.344;2023-07-13T00:10:02;4.28;;;0.98;;
37971;SDS011;23794;48.234;8.344;2023-07-13T00:12:30;2.60;;;1.02;;
37971;SDS011;23794;48.234;8.344;2023-07-13T00:15:00;2.15;;;0.70;;
37971;SDS011;23794;48.234;8.344;2023-07-13T00:17:29;2.53;;;1.20;;
37971;SDS011;23794;48.234;8.344;2023-07-13T00:19:56;2.00;;;1.00;;
37971;SDS011;23794;48.234;8.344;2023-07-13T00:22:24;2.85;;;1.00;;
37971;SDS011;23794;48.234;8.344;2023-07-13T00:24:54;2.50;;;1.25;;
37971;SDS011;23794;48.234;8.344;2023-07-13T00:27:24;2.53;;;1.10;;
37971;SDS011;23794;48.234;8.344;2023-07-13T00:29:53;3.13;;;1.30;;
37971;SDS011;23794;48.234;8.344;2023-07-13T00:32:19;4.38;;;1.10;;
37971;SDS011;23794;48.234;8.344;2023-07-13T00:34:46;1.25;;;0.80;;
37971;SDS011;23794;48.234;8.344;2023-07-13T00:37:13;3.40;;;1.00;;
37971;SDS011;23794;48.234;8.344;2023-07-13T00:39:41;2.33;;;1.42;;
37971;SDS011;23794;48.234;8.344;2023-07-13T00:42:08;2.90;;;1.00;;
37971;SDS011;23794;48.234;8.344;2023-07-13T00:44:35;2.85;;;1.00;;
37971;SDS011;23794;48.234;8.344;2023-07-13T00:47:02;4.10;;;1.10;;
37971;SDS011;23794;48.234;8.344;2023-07-13T00:49:29;5.80;;;1.10;;
37971;SDS011;23794;48.234;8.344;2023-07-13T00:52:07;3.20;;;1.10;;
37971;SDS011;23794;48.234;8.344;2023-07-13T00:54:40;2.95;;;1.10;;
37971;SDS011;23794;48.234;8.344;2023-07-13T00:57:15;2.80;;;1.27;;
37971;SDS011;23794;48.234;8.344;2023-07-13T00:59:50;1.45;;;0.77;;
37971;SDS011;23794;48.234;8.344;2023-07-13T01:02:20;3.85;;;0.95;;
37971;SDS011;23794;48.234;8.344;2023-07-13T01:04:48;2.58;;;0.82;;
37971;SDS011;23794;48.234;8.344;2023-07-13T01:07:14;4.25;;;1.15;;
37971;SDS011;23794;48.234;8.344;2023-07-13T01:09:42;5.68;;;1.13;;
37971;SDS011;23794;48.234;8.344;2023-07-13T01:12:08;5.10;;;0.90;;
37971;SDS011;23794;48.234;8.344;2023-07-13T01:14:35;2.85;;;1.00;;
37971;SDS011;23794;48.234;8.344;2023-07-13T01:17:02;4.88;;;1.50;;
37971;SDS011;23794;48.234;8.344;2023-07-13T01:19:35;5.15;;;1.27;;
37971;SDS011;23794;48.234;8.344;2023-07-13T01:22:06;3.60;;;1.33;;
37971;SDS011;23794;48.234;8.344;2023-07-13T01:24:39;3.75;;;1.00;;
37971;SDS011;23794;48.234;8.344;2023-07-13T01:27:07;1.27;;;0.90;;
37971;SDS011;23794;48.234;8.344;2023-07-13T01:29:39;1.83;;;0.90;;
37971;SDS011;23794;48.234;8.344;2023-07-13T01:32:09;2.85;;;1.02;;
37971;SDS011;23794;48.234;8.344;2023-07-13T01:34:37;2.00;;;1.08;;
37971;SDS011;23794;48.234;8.344;2023-07-13T01:37:04;4.97;;;1.20;;
37971;SDS011;23794;48.234;8.344;2023-07-13T01:39:33;3.97;;;0.95;;
37971;SDS011;23794;48.234;8.344;2023-07-13T01:42:00;5.85;;;1.10;;
37971;SDS011;23794;48.234;8.344;2023-07-13T01:44:29;4.20;;;0.80;;
37971;SDS011;23794;48.234;8.344;2023-07-13T01:46:56;3.20;;;1.15;;
37971;SDS011;23794;48.234;8.344;2023-07-13T01:49:23;1.95;;;0.85;;
37971;SDS011;23794;48.234;8.344;2023-07-13T01:51:49;3.38;;;1.10;;
37971;SDS011;23794;48.234;8.344;2023-07-13T01:54:18;3.75;;;1.02;;
37971;SDS011;23794;48.234;8.344;2023-07-13T01:56:45;4.88;;;1.42;;
37971;SDS011;23794;48.234;8.344;2023-07-13T01:59:11;2.05;;;0.90;;
37971;SDS011;23794;48.234;8.344;2023-07-13T02:01:38;3.35;;;0.82;;
37971;SDS011;23794;48.234;8.344;2023-07-13T02:04:05;3.03;;;0.93;;
37971;SDS011;23794;48.234;8.344;2023-07-13T02:06:32;3.88;;;1.20;;
37971;SDS011;23794;48.234;8.344;2023-07-13T02:08:58;1.92;;;0.90;;
37971;SDS011;23794;48.234;8.344;2023-07-13T02:11:25;5.38;;;1.45;;
37971;SDS011;23794;48.234;8.344;2023-07-13T02:13:59;3.10;;;1.00;;
37971;SDS011;23794;48.234;8.344;2023-07-13T02:16:28;3.38;;;1.15;;
37971;SDS011;23794;48.234;8.344;2023-07-13T02:18:56;4.32;;;1.20;;
37971;SDS011;23794;48.234;8.344;2023-07-13T02:21:23;3.92;;;0.93;;
37971;SDS011;23794;48.234;8.344;2023-07-13T02:23:51;3.58;;;1.13;;
37971;SDS011;23794;48.234;8.344;2023-07-13T02:26:18;3.13;;;1.38;;
37971;SDS011;23794;48.234;8.344;2023-07-13T02:28:46;4.43;;;1.20;;
37971;SDS011;23794;48.234;8.344;2023-07-13T02:31:14;3.45;;;1.10;;
37971;SDS011;23794;48.234;8.344;2023-07-13T02:33:42;2.20;;;1.08;;
37971;SDS011;23794;48.234;8.344;2023-07-13T02:36:10;4.20;;;1.33;;
37971;SDS011;23794;48.234;8.344;2023-07-13T02:38:38;3.63;;;1.08;;
37971;SDS011;23794;48.234;8.344;2023-07-13T02:41:05;4.13;;;1.08;;
37971;SDS011;23794;48.234;8.344;2023-07-13T02:43:34;4.13;;;1.00;;
37971;SDS011;23794;48.234;8.344;2023-07-13T02:46:02;5.40;;;1.02;;
37971;SDS011;23794;48.234;8.344;2023-07-13T02:48:34;2.75;;;1.10;;
37971;SDS011;23794;48.234;8.344;2023-07-13T02:51:02;7.70;;;1.20;;
37971;SDS011;23794;48.234;8.344;2023-07-13T02:53:29;2.67;;;1.30;;
37971;SDS011;23794;48.234;8.344;2023-07-13T02:55:56;2.92;;;1.30;;
37971;SDS011;23794;48.234;8.344;2023-07-13T02:58:23;3.25;;;1.27;;
37971;SDS011;23794;48.234;8.344;2023-07-13T03:00:50;3.30;;;1.23;;
37971;SDS011;23794;48.234;8.344;2023-07-13T03:03:18;4.65;;;1.08;;
37971;SDS011;23794;48.234;8.344;2023-07-13T03:05:46;2.28;;;0.93;;
37971;SDS011;23794;48.234;8.344;2023-07-13T03:08:20;3.42;;;1.77;;
37971;SDS011;23794;48.234;8.344;2023-07-13T03:10:49;2.50;;;1.48;;
37971;SDS011;23794;48.234;8.344;2023-07-13T03:13:26;4.15;;;1.02;;
37971;SDS011;23794;48.234;8.344;2023-07-13T03:15:52;3.88;;;1.10;;
37971;SDS011;23794;48.234;8.344;2023-07-13T03:18:19;2.60;;;1.33;;
37971;SDS011;23794;48.234;8.344;2023-07-13T03:20:49;5.07;;;1.58;;
37971;SDS011;23794;48.234;8.344;2023-07-13T03:23:17;1.77;;;1.15;;
37971;SDS011;23794;48.234;8.344;2023-07-13T03:25:45;3.95;;;1.45;;
37971;SDS011;23794;48.234;8.344;2023-07-13T03:28:11;3.90;;;1.65;;
37971;SDS011;23794;48.234;8.344;2023-07-13T03:30:39;2.40;;;1.30;;
37971;SDS011;23794;48.234;8.344;2023-07-13T03:33:07;3.22;;;1.35;;
37971;SDS011;23794;48.234;8.344;2023-07-13T03:35:35;6.05;;;1.75;;
37971;SDS011;23794;48.234;8.344;2023-07-13T03:38:01;4.85;;;1.88;;
37971;SDS011;23794;48.234;8.344;2023-07-13T03:40:28;5.57;;;2.38;;
37971;SDS011;23794;48.234;8.344;2023-07-13T03:42:55;3.35;;;1.50;;
37971;SDS011;23794;48.234;8.344;2023-07-13T03:45:22;4.20;;;1.70;;
37971;SDS011;23794;48.234;8.344;2023-07-13T03:47:48;4.40;;;1.73;;
37971;SDS011;23794;48.234;8.344;2023-07-13T03:50:16;5.47;;;1.80;;
37971;SDS011;23794;48.234;8.344;2023-07-13T03:52:42;2.85;;;1.52;;
37971;SDS011;23794;48.234;8.344;2023-07-13T03:55:09;4.13;;;1.88;;
37971;SDS011;23794;48.234;8.344;2023-07-13T03:57:36;4.03;;;2.22;;
37971;SDS011;23794;48.234;8.344;2023-07-13T04:00:07;5.10;;;2.03;;
37971;SDS011;23794;48.234;8.344;2023-07-13T04:02:41;3.17;;;1.85;;
37971;SDS011;23794;48.234;8.344;2023-07-13T04:05:07;5.18;;;2.13;;
37971;SDS011;23794;48.234;8.344;2023-07-13T04:07:34;7.80;;;2.40;;
37971;SDS011;23794;48.234;8.344;2023-07-13T04:10:01;5.70;;;2.10;;
37971;SDS011;23794;48.234;8.344;2023-07-13T04:12:29;5.82;;;2.45;;
37971;SDS011;23794;48.234;8.344;2023-07-13T04:14:56;5.38;;;2.65;;
37971;SDS011;23794;48.234;8.344;2023-07-13T04:17:23;5.05;;;1.80;;
37971;SDS011;23794;48.234;8.344;2023-07-13T04:19:49;4.43;;;2.30;;
37971;SDS011;23794;48.234;8.344;2023-07-13T04:22:16;3.00;;;1.75;;
37971;SDS011;23794;48.234;8.344;2023-07-13T04:24:43;2.60;;;2.05;;
37971;SDS011;23794;48.234;8.344;2023-07-13T04:27:10;5.18;;;1.83;;
37971;SDS011;23794;48.234;8.344;2023-07-13T04:29:36;5.63;;;1.52;;
37971;SDS011;23794;48.234;8.344;2023-07-13T04:32:03;3.70;;;1.73;;
37971;SDS011;23794;48.234;8.344;2023-07-13T04:34:30;3.45;;;1.85;;
37971;SDS011;23794;48.234;8.344;2023-07-13T04:36:57;4.38;;;1.75;;
37971;SDS011;23794;48.234;8.344;2023-07-13T04:39:24;7.10;;;2.33;;
37971;SDS011;23794;48.234;8.344;2023-07-13T04:41:50;4.63;;;2.20;;
37971;SDS011;23794;48.234;8.344;2023-07-13T04:44:17;3.50;;;1.77;;
37971;SDS011;23794;48.234;8.344;2023-07-13T04:46:44;5.03;;;1.92;;
37971;SDS011;23794;48.234;8.344;2023-07-13T04:49:11;7.28;;;2.20;;
37971;SDS011;23794;48.234;8.344;2023-07-13T04:51:37;3.55;;;1.88;;
37971;SDS011;23794;48.234;8.344;2023-07-13T04:54:04;4.47;;;1.75;;
37971;SDS011;23794;48.234;8.344;2023-07-13T04:56:31;3.55;;;1.98;;
37971;SDS011;23794;48.234;8.344;2023-07-13T04:58:57;2.45;;;1.60;;
37971;SDS011;23794;48.234;8.344;2023-07-13T05:01:24;3.38;;;2.25;;
37971;SDS011;23794;48.234;8.344;2023-07-13T05:03:51;5.57;;;2.28;;
37971;SDS011;23794;48.234;8.344;2023-07-13T05:06:18;2.97;;;2.00;;
37971;SDS011;23794;48.234;8.344;2023-07-13T05:08:44;4.07;;;1.70;;
37971;SDS011;23794;48.234;8.344;2023-07-13T05:11:11;4.20;;;2.03;;
37971;SDS011;23794;48.234;8.344;2023-07-13T05:13:38;5.32;;;1.92;;
37971;SDS011;23794;48.234;8.344;2023-07-13T05:16:05;4.18;;;1.73;;
37971;SDS011;23794;48.234;8.344;2023-07-13T05:18:34;4.85;;;2.10;;
37971;SDS011;23794;48.234;8.344;2023-07-13T05:21:03;3.15;;;2.00;;
37971;SDS011;23794;48.234;8.344;2023-07-13T05:23:32;5.03;;;2.30;;
37971;SDS011;23794;48.234;8.344;2023-07-13T05:26:01;5.82;;;1.95;;
37971;SDS011;23794;48.234;8.344;2023-07-13T05:28:31;4.57;;;2.10;;
37971;SDS011;23794;48.234;8.344;2023-07-13T05:30:58;3.13;;;1.98;;
37971;SDS011;23794;48.234;8.344;2023-07-13T05:33:25;3.70;;;2.17;;
37971;SDS011;23794;48.234;8.344;2023-07-13T05:35:52;3.65;;;1.80;;
37971;SDS011;23794;48.234;8.344;2023-07-13T05:38:19;4.75;;;1.83;;
37971;SDS011;23794;48.234;8.344;2023-07-13T05:40:46;5.18;;;1.80;;
37971;SDS011;23794;48.234;8.344;2023-07-13T05:43:13;2.47;;;1.27;;
37971;SDS011;23794;48.234;8.344;2023-07-13T05:45:41;4.47;;;2.08;;
37971;SDS011;23794;48.234;8.344;2023-07-13T05:48:07;3.08;;;1.30;;
37971;SDS011;23794;48.234;8.344;2023-07-13T05:50:34;9.70;;;1.67;;
37971;SDS011;23794;48.234;8.344;2023-07-13T05:53:01;3.35;;;1.70;;
37971;SDS011;23794;48.234;8.344;2023-07-13T05:55:27;4.50;;;1.65;;
37971;SDS011;23794;48.234;8.344;2023-07-13T05:57:54;4.47;;;1.80;;
37971;SDS011;23794;48.234;8.344;2023-07-13T06:00:21;5.28;;;1.70;;
37971;SDS011;23794;48.234;8.344;2023-07-13T06:02:47;2.90;;;1.63;;
37971;SDS011;23794;48.234;8.344;2023-07-13T06:05:14;3.13;;;1.70;;
37971;SDS011;23794;48.234;8.344;2023-07-13T06:07:41;5.70;;;1.83;;
37971;SDS011;23794;48.234;8.344;2023-07-13T06:10:08;2.20;;;1.30;;
37971;SDS011;23794;48.234;8.344;2023-07-13T06:12:35;6.25;;;1.67;;
37971;SDS011;23794;48.234;8.344;2023-07-13T06:15:06;3.53;;;1.63;;
37971;SDS011;23794;48.234;8.344;2023-07-13T06:17:37;4.45;;;1.70;;
37971;SDS011;23794;48.234;8.344;2023-07-13T06:20:04;3.90;;;1.40;;
37971;SDS011;23794;48.234;8.344;2023-07-13T06:22:31;4.82;;;1.15;;
37971;SDS011;23794;48.234;8.344;2023-07-13T06:25:01;10.87;;;1.40;;
37971;SDS011;23794;48.234;8.344;2023-07-13T06:27:29;5.15;;;1.33;;
37971;SDS011;23794;48.234;8.344;2023-07-13T06:29:56;2.75;;;1.33;;
37971;SDS011;23794;48.234;8.344;2023-07-13T06:32:23;3.10;;;1.45;;
37971;SDS011;23794;48.234;8.344;2023-07-13T06:34:50;11.52;;;1.52;;
37971;SDS011;23794;48.234;8.344;2023-07-13T06:37:18;10.30;;;1.75;;
37971;SDS011;23794;48.234;8.344;2023-07-13T06:39:45;3.17;;;0.93;;
37971;SDS011;23794;48.234;8.344;2023-07-13T06:42:11;4.63;;;1.00;;
37971;SDS011;23794;48.234;8.344;2023-07-13T06:44:40;5.78;;;1.17;;
37971;SDS011;23794;48.234;8.344;2023-07-13T06:47:06;3.42;;;1.08;;
37971;SDS011;23794;48.234;8.344;2023-07-13T06:49:33;6.53;;;1.30;;
37971;SDS011;23794;48.234;8.344;2023-07-13T06:52:00;3.92;;;1.25;;
37971;SDS011;23794;48.234;8.344;2023-07-13T06:54:27;3.25;;;1.20;;
37971;SDS011;23794;48.234;8.344;2023-07-13T06:56:54;3.53;;;1.38;;
37971;SDS011;23794;48.234;8.344;2023-07-13T06:59:20;4.75;;;1.05;;
37971;SDS011;23794;48.234;8.344;2023-07-13T07:01:47;5.10;;;1.00;;
37971;SDS011;23794;48.234;8.344;2023-07-13T07:04:13;5.05;;;1.40;;
37971;SDS011;23794;48.234;8.344;2023-07-13T07:06:40;2.80;;;1.05;;
37971;SDS011;23794;48.234;8.344;2023-07-13T07:09:07;4.00;;;1.00;;
37971;SDS011;23794;48.234;8.344;2023-07-13T07:11:35;6.18;;;1.55;;
37971;SDS011;23794;48.234;8.344;2023-07-13T07:14:01;3.42;;;1.10;;
37971;SDS011;23794;48.234;8.344;2023-07-13T07:16:28;7.10;;;1.17;;
37971;SDS011;23794;48.234;8.344;2023-07-13T07:18:55;4.50;;;1.10;;
37971;SDS011;23794;48.234;8.344;2023-07-13T07:21:22;2.95;;;0.85;;
37971;SDS011;23794;48.234;8.344;2023-07-13T07:23:51;5.10;;;1.10;;
37971;SDS011;23794;48.234;8.344;2023-07-13T07:26:18;4.72;;;1.30;;
37971;SDS011;23794;48.234;8.344;2023-07-13T07:28:45;4.53;;;1.42;;
37971;SDS011;23794;48.234;8.344;2023-07-13T07:31:31;3.83;;;0.98;;
37971;SDS011;23794;48.234;8.344;2023-07-13T07:34:01;3.10;;;1.23;;
37971;SDS011;23794;48.234;8.344;2023-07-13T07:36:27;4.13;;;1.10;;
37971;SDS011;23794;48.234;8.344;2023-07-13T07:38:57;5.28;;;1.00;;
37971;SDS011;23794;48.234;8.344;2023-07-13T07:41:23;5.35;;;1.38;;
37971;SDS011;23794;48.234;8.344;2023-07-13T07:43:53;2.20;;;0.85;;
37971;SDS011;23794;48.234;8.344;2023-07-13T07:46:20;4.07;;;1.02;;
37971;SDS011;23794;48.234;8.344;2023-07-13T07:48:46;4.13;;;1.05;;
37971;SDS011;23794;48.234;8.344;2023-07-13T07:51:13;2.60;;;0.95;;
37971;SDS011;23794;48.234;8.344;2023-07-13T07:53:40;3.15;;;1.08;;
37971;SDS011;23794;48.234;8.344;2023-07-13T07:56:06;1.73;;;0.88;;
37971;SDS011;23794;48.234;8.344;2023-07-13T07:58:53;4.78;;;1.10;;
37971;SDS011;23794;48.234;8.344;2023-07-13T08:01:22;3.45;;;1.23;;
37971;SDS011;23794;48.234;8.344;2023-07-13T08:03:52;3.67;;;1.20;;
37971;SDS011;23794;48.234;8.344;2023-07-13T08:06:22;3.42;;;1.20;;
37971;SDS011;23794;48.234;8.344;2023-07-13T08:08:52;4.53;;;1.00;;
37971;SDS011;23794;48.234;8.344;2023-07-13T08:11:20;5.50;;;1.23;;
37971;SDS011;23794;48.234;8.344;2023-07-13T08:13:50;3.28;;;0.95;;
37971;SDS011;23794;48.234;8.344;2023-07-13T08:16:20;5.40;;;0.90;;
37971;SDS011;23794;48.234;8.344;2023-07-13T08:18:48;7.05;;;1.25;;
37971;SDS011;23794;48.234;8.344;2023-07-13T08:21:15;6.10;;;1.17;;
37971;SDS011;23794;48.234;8.344;2023-07-13T08:23:41;5.28;;;1.20;;
37971;SDS011;23794;48.234;8.344;2023-07-13T08:26:09;7.32;;;1.38;;
37971;SDS011;23794;48.234;8.344;2023-07-13T08:28:35;3.72;;;1.23;;
37971;SDS011;23794;48.234;8.344;2023-07-13T08:31:03;4.15;;;1.40;;
37971;SDS011;23794;48.234;8.344;2023-07-13T08:33:36;3.28;;;1.23;;
37971;SDS011;23794;48.234;8.344;2023-07-13T08:36:03;5.40;;;1.15;;
37971;SDS011;23794;48.234;8.344;2023-07-13T08:38:31;5.45;;;1.38;;
37971;SDS011;23794;48.234;8.344;2023-07-13T08:40:57;2.78;;;1.15;;
37971;SDS011;23794;48.234;8.344;2023-07-13T08:43:33;6.20;;;1.20;;
37971;SDS011;23794;48.234;8.344;2023-07-13T08:46:09;4.53;;;1.10;;
37971;SDS011;23794;48.234;8.344;2023-07-13T08:54:18;2.13;;;1.00;;
37971;SDS011;23794;48.234;8.344;2023-07-13T08:56:48;4.10;;;1.00;;
37971;SDS011;23794;48.234;8.344;2023-07-13T08:59:20;6.53;;;1.35;;
37971;SDS011;23794;48.234;8.344;2023-07-13T09:01:58;4.55;;;1.50;;
37971;SDS011;23794;48.234;8.344;2023-07-13T09:10:31;1.95;;;0.77;;
37971;SDS011;23794;48.234;8.344;2023-07-13T09:15:57;1.30;;;1.00;;
37971;SDS011;23794;48.234;8.344;2023-07-13T09:18:36;2.13;;;0.85;;
37971;SDS011;23794;48.234;8.344;2023-07-13T09:21:15;3.92;;;1.20;;
37971;SDS011;23794;48.234;8.344;2023-07-13T09:23:44;3.35;;;1.33;;
37971;SDS011;23794;48.234;8.344;2023-07-13T09:26:15;2.63;;;1.00;;
37971;SDS011;23794;48.234;8.344;2023-07-13T09:28:45;3.42;;;0.95;;
37971;SDS011;23794;48.234;8.344;2023-07-13T09:31:23;3.70;;;1.08;;
37971;SDS011;23794;48.234;8.344;2023-07-13T09:36:29;3.72;;;1.08;;
37971;SDS011;23794;48.234;8.344;2023-07-13T09:39:12;3.33;;;1.55;;
37971;SDS011;23794;48.234;8.344;2023-07-13T09:41:55;5.50;;;1.17;;
37971;SDS011;23794;48.234;8.344;2023-07-13T09:44:56;3.15;;;1.10;;
37971;SDS011;23794;48.234;8.344;2023-07-13T09:47:29;4.82;;;1.42;;
37971;SDS011;23794;48.234;8.344;2023-07-13T09:49:58;4.03;;;1.30;;
37971;SDS011;23794;48.234;8.344;2023-07-13T09:52:40;2.67;;;1.00;;
37971;SDS011;23794;48.234;8.344;2023-07-13T09:58:02;2.40;;;1.13;;
37971;SDS011;23794;48.234;8.344;2023-07-13T10:00:31;3.55;;;1.10;;
37971;SDS011;23794;48.234;8.344;2023-07-13T10:03:05;1.95;;;1.08;;
37971;SDS011;23794;48.234;8.344;2023-07-13T10:05:43;1.75;;;1.10;;
37971;SDS011;23794;48.234;8.344;2023-07-13T10:08:23;4.53;;;1.20;;
37971;SDS011;23794;48.234;8.344;2023-07-13T10:10:58;6.80;;;1.52;;
37971;SDS011;23794;48.234;8.344;2023-07-13T10:13:28;5.63;;;1.10;;
37971;SDS011;23794;48.234;8.344;2023-07-13T10:15:57;2.28;;;1.15;;
37971;SDS011;23794;48.234;8.344;2023-07-13T10:18:25;2.58;;;1.05;;
37971;SDS011;23794;48.234;8.344;2023-07-13T10:20:58;6.80;;;1.40;;
37971;SDS011;23794;48.234;8.344;2023-07-13T10:23:57;3.63;;;1.27;;
37971;SDS011;23794;48.234;8.344;2023-07-13T10:26:32;4.07;;;1.10;;
37971;SDS011;23794;48.234;8.344;2023-07-13T10:31:33;3.53;;;1.10;;
37971;SDS011;23794;48.234;8.344;2023-07-13T10:34:03;3.17;;;1.10;;
37971;SDS011;23794;48.234;8.344;2023-07-13T10:36:38;1.98;;;0.90;;
37971;SDS011;23794;48.234;8.344;2023-07-13T10:39:10;3.40;;;1.10;;
37971;SDS011;23794;48.234;8.344;2023-07-13T10:41:47;2.50;;;1.05;;
37971;SDS011;23794;48.234;8.344;2023-07-13T10:44:23;3.20;;;0.90;;
37971;SDS011;23794;48.234;8.344;2023-07-13T10:46:55;3.53;;;0.98;;
37971;SDS011;23794;48.234;8.344;2023-07-13T10:49:28;3.70;;;1.00;;
37971;SDS011;23794;48.234;8.344;2023-07-13T10:51:57;2.45;;;0.90;;
37971;SDS011;23794;48.234;8.344;2023-07-13T10:54:31;1.88;;;0.90;;
37971;SDS011;23794;48.234;8.344;2023-07-13T10:57:17;2.05;;;1.10;;
37971;SDS011;23794;48.234;8.344;2023-07-13T11:02:55;5.80;;;1.10;;
37971;SDS011;23794;48.234;8.344;2023-07-13T11:05:28;3.45;;;1.25;;
37971;SDS011;23794;48.234;8.344;2023-07-13T11:10:57;5.05;;;1.67;;
37971;SDS011;23794;48.234;8.344;2023-07-13T11:16:13;3.03;;;1.02;;
37971;SDS011;23794;48.234;8.344;2023-07-13T11:21:29;2.97;;;0.80;;
37971;SDS011;23794;48.234;8.344;2023-07-13T11:31:41;2.55;;;0.90;;
37971;SDS011;23794;48.234;8.344;2023-07-13T11:34:13;1.83;;;1.00;;
37971;SDS011;23794;48.234;8.344;2023-07-13T11:36:44;1.88;;;0.70;;
37971;SDS011;23794;48.234;8.344;2023-07-13T11:39:30;5.43;;;1.30;;
37971;SDS011;23794;48.234;8.344;2023-07-13T11:42:00;3.00;;;0.90;;
37971;SDS011;23794;48.234;8.344;2023-07-13T11:44:30;2.33;;;0.80;;
37971;SDS011;23794;48.234;8.344;2023-07-13T11:46:59;3.72;;;0.95;;
37971;SDS011;23794;48.234;8.344;2023-07-13T11:49:43;4.28;;;1.02;;
37971;SDS011;23794;48.234;8.344;2023-07-13T11:52:14;1.65;;;0.70;;
37971;SDS011;23794;48.234;8.344;2023-07-13T11:54:47;3.50;;;1.10;;
37971;SDS011;23794;48.234;8.344;2023-07-13T11:57:23;2.55;;;1.05;;
37971;SDS011;23794;48.234;8.344;2023-07-13T11:59:54;5.32;;;0.95;;
37971;SDS011;23794;48.234;8.344;2023-07-13T12:02:29;3.63;;;0.80;;
37971;SDS011;23794;48.234;8.344;2023-07-13T12:04:59;5.05;;;0.98;;
37971;SDS011;23794;48.234;8.344;2023-07-13T12:07:30;3.85;;;1.17;;
37971;SDS011;23794;48.234;8.344;2023-07-13T12:10:17;6.45;;;0.90;;
37971;SDS011;23794;48.234;8.344;2023-07-13T12:12:56;3.55;;;1.20;;
37971;SDS011;23794;48.234;8.344;2023-07-13T12:15:27;2.78;;;0.93;;
37971;SDS011;23794;48.234;8.344;2023-07-13T12:17:59;3.08;;;1.00;;
37971;SDS011;23794;48.234;8.344;2023-07-13T12:20:35;3.28;;;1.55;;
37971;SDS011;23794;48.234;8.344;2023-07-13T12:23:23;2.53;;;1.20;;
37971;SDS011;23794;48.234;8.344;2023-07-13T12:25:52;1.60;;;1.10;;
37971;SDS011;23794;48.234;8.344;2023-07-13T12:28:20;1.40;;;0.70;;
37971;SDS011;23794;48.234;8.344;2023-07-13T12:31:02;1.95;;;0.85;;
37971;SDS011;23794;48.234;8.344;2023-07-13T12:33:39;2.55;;;1.15;;
37971;SDS011;23794;48.234;8.344;2023-07-13T12:36:08;2.47;;;1.10;;
37971;SDS011;23794;48.234;8.344;2023-07-13T12:38:38;2.67;;;1.00;;
37971;SDS011;23794;48.234;8.344;2023-07-13T12:41:09;3.00;;;0.80;;
37971;SDS011;23794;48.234;8.344;2023-07-13T12:43:37;2.80;;;1.17;;
37971;SDS011;23794;48.234;8.344;2023-07-13T12:46:04;4.30;;;1.13;;
37971;SDS011;23794;48.234;8.344;2023-07-13T12:48:43;2.58;;;0.88;;
37971;SDS011;23794;48.234;8.344;2023-07-13T12:51:27;3.42;;;1.02;;
37971;SDS011;23794;48.234;8.344;2023-07-13T12:54:05;3.08;;;0.90;;
37971;SDS011;23794;48.234;8.344;2023-07-13T12:56:38;1.30;;;0.93;;
37971;SDS011;23794;48.234;8.344;2023-07-13T12:59:05;4.47;;;1.23;;
37971;SDS011;23794;48.234;8.344;2023-07-13T13:01:33;2.55;;;1.20;;
37971;SDS011;23794;48.234;8.344;2023-07-13T13:04:03;4.38;;;1.15;;
37971;SDS011;23794;48.234;8.344;2023-07-13T13:06:33;3.38;;;0.98;;
37971;SDS011;23794;48.234;8.344;2023-07-13T13:09:03;4.20;;;1.00;;
37971;SDS011;23794;48.234;8.344;2023-07-13T13:11:31;2.55;;;0.93;;
37971;SDS011;23794;48.234;8.344;2023-07-13T13:14:01;2.05;;;1.05;;
37971;SDS011;23794;48.234;8.344;2023-07-13T13:16:31;6.28;;;1.10;;
37971;SDS011;23794;48.234;8.344;2023-07-13T13:19:13;2.55;;;0.90;;
37971;SDS011;23794;48.234;8.344;2023-07-13T13:21:43;2.55;;;0.75;;
37971;SDS011;23794;48.234;8.344;2023-07-13T13:24:14;2.55;;;1.05;;
37971;SDS011;23794;48.234;8.344;2023-07-13T13:26:44;2.08;;;1.15;;
37971;SDS011;23794;48.234;8.344;2023-07-13T13:29:16;3.78;;;1.00;;
37971;SDS011;23794;48.234;8.344;2023-07-13T13:31:51;3.20;;;1.38;;
37971;SDS011;23794;48.234;8.344;2023-07-13T13:34:19;3.58;;;1.05;;
37971;SDS011;23794;48.234;8.344;2023-07-13T13:36:50;4.32;;;1.00;;
37971;SDS011;23794;48.234;8.344;2023-07-13T13:41:48;2.50;;;0.73;;
37971;SDS011;23794;48.234;8.344;2023-07-13T13:44:17;3.50;;;1.10;;
37971;SDS011;23794;48.234;8.344;2023-07-13T13:46:51;5.03;;;1.27;;
37971;SDS011;23794;48.234;8.344;2023-07-13T13:49:24;4.65;;;1.05;;
37971;SDS011;23794;48.234;8.344;2023-07-13T13:51:52;3.42;;;1.10;;
37971;SDS011;23794;48.234;8.344;2023-07-13T13:54:20;3.13;;;1.00;;
37971;SDS011;23794;48.234;8.344;2023-07-13T13:56:49;5.10;;;1.20;;
37971;SDS011;23794;48.234;8.344;2023-07-13T13:59:17;3.10;;;1.25;;
37971;SDS011;23794;48.234;8.344;2023-07-13T14:01:45;4.28;;;1.10;;
37971;SDS011;23794;48.234;8.344;2023-07-13T14:04:21;4.70;;;1.30;;
37971;SDS011;23794;48.234;8.344;2023-07-13T14:06:48;1.27;;;0.90;;
37971;SDS011;23794;48.234;8.344;2023-07-13T14:09:16;3.85;;;1.20;;
37971;SDS011;23794;48.234;8.344;2023-07-13T14:11:46;1.90;;;0.97;;
37971;SDS011;23794;48.234;8.344;2023-07-13T14:16:50;4.40;;;1.00;;
37971;SDS011;23794;48.234;8.344;2023-07-13T14:19:20;3.43;;;0.77;;
37971;SDS011;23794;48.234;8.344;2023-07-13T14:21:47;2.20;;;1.23;;
37971;SDS011;23794;48.234;8.344;2023-07-13T14:24:16;2.90;;;1.15;;
37971;SDS011;23794;48.234;8.344;2023-07-13T14:26:42;6.45;;;1.17;;
37971;SDS011;23794;48.234;8.344;2023-07-13T14:29:11;2.10;;;0.90;;
37971;SDS011;23794;48.234;8.344;2023-07-13T14:31:41;3.88;;;1.15;;
37971;SDS011;23794;48.234;8.344;2023-07-13T14:34:09;2.67;;;1.00;;
37971;SDS011;23794;48.234;8.344;2023-07-13T14:36:38;2.75;;;1.08;;
37971;SDS011;23794;48.234;8.344;2023-07-13T14:39:14;2.80;;;1.08;;
37971;SDS011;23794;48.234;8.344;2023-07-13T14:41:43;3.25;;;1.02;;
37971;SDS011;23794;48.234;8.344;2023-07-13T14:44:11;9.25;;;1.50;;
37971;SDS011;23794;48.234;8.344;2023-07-13T14:46:39;3.35;;;1.05;;
37971;SDS011;23794;48.234;8.344;2023-07-13T14:49:15;4.30;;;1.33;;
37971;SDS011;23794;48.234;8.344;2023-07-13T14:51:50;6.13;;;1.30;;
37971;SDS011;23794;48.234;8.344;2023-07-13T14:54:16;3.97;;;1.52;;
37971;SDS011;23794;48.234;8.344;2023-07-13T14:56:43;2.45;;;0.93;;
37971;SDS011;23794;48.234;8.344;2023-07-13T14:59:10;2.17;;;0.77;;
37971;SDS011;23794;48.234;8.344;2023-07-13T15:01:39;3.38;;;1.52;;
37971;SDS011;23794;48.234;8.344;2023-07-13T15:04:07;3.95;;;1.38;;
37971;SDS011;23794;48.234;8.344;2023-07-13T15:09:25;2.38;;;0.95;;
37971;SDS011;23794;48.234;8.344;2023-07-13T15:11:56;2.25;;;1.13;;
37971;SDS011;23794;48.234;8.344;2023-07-13T15:14:25;3.50;;;1.02;;
37971;SDS011;23794;48.234;8.344;2023-07-13T15:16:53;2.60;;;0.98;;
37971;SDS011;23794;48.234;8.344;2023-07-13T15:19:22;3.07;;;1.10;;
37971;SDS011;23794;48.234;8.344;2023-07-13T15:21:49;5.22;;;1.13;;
37971;SDS011;23794;48.234;8.344;2023-07-13T15:24:18;1.48;;;1.02;;
37971;SDS011;23794;48.234;8.344;2023-07-13T15:26:44;2.20;;;0.90;;
37971;SDS011;23794;48.234;8.344;2023-07-13T15:29:12;4.88;;;1.45;;
37971;SDS011;23794;48.234;8.344;2023-07-13T15:31:40;2.00;;;1.05;;
37971;SDS011;23794;48.234;8.344;2023-07-13T15:34:12;3.60;;;1.20;;
37971;SDS011;23794;48.234;8.344;2023-07-13T15:36:40;3.47;;;1.13;;
37971;SDS011;23794;48.234;8.344;2023-07-13T15:39:08;4.68;;;1.50;;
37971;SDS011;23794;48.234;8.344;2023-07-13T15:41:40;3.97;;;1.00;;
37971;SDS011;23794;48.234;8.344;2023-07-13T15:44:28;2.80;;;0.93;;
37971;SDS011;23794;48.234;8.344;2023-07-13T15:46:57;5.05;;;1.17;;
37971;SDS011;23794;48.234;8.344;2023-07-13T15:49:27;3.38;;;1.50;;
37971;SDS011;23794;48.234;8.344;2023-07-13T15:51:53;3.92;;;1.27;;